Terminal Aerodrome Forecast
Issued by NWS

Home | Current Version | Previous Version | Text Only | Print | Product List | Glossary On
Versions: 1 2 3 4 5 6 7 8 9 10 11 12 13 14 15 16 17 18 19 20
000
FTUS42 KGSP 280539
TAFGMU
TAF
KGMU 280539Z 2806/2906 29012G20KT P6SM -SHRA SCT030 OVC050
      TEMPO 2806/2808 TSRA OVC030CB
     FM280800 21007KT P6SM -SHRA OVC050
     FM281100 22007KT P6SM VCSH BKN020
     FM281400 23008KT P6SM BKN040
     FM281600 24010G17KT P6SM SCT050
     FM290200 31006KT P6SM FEW250=

USA.gov is the U.S. government's official web portal to all federal, state and local government web resources and services.